Terminal Aerodrome Forecast
Issued by NWS Bismarck, ND

Home | Current Version | Previous Version | Text Only | Print | Product List | Glossary On
Versions: 1 2 3 4 5 6 7 8 9 10 11 12 13 14 15
662
FTUS43 KBIS 271134
TAFISN
TAF
KISN 271134Z 2712/2812 26005KT P6SM VCSH BKN060
     FM271400 33004KT P6SM -SHRA BKN090
     FM271800 11006KT P6SM VCTS BKN060CB
     FM272000 10006KT P6SM BKN050=

USA.gov is the U.S. government's official web portal to all federal, state and local government web resources and services.